Aérodrome :
LOGIN :

S'inscrire | Disclaimer

   EN    FR    IT 

 










Légende :    VFR   VFR Marginal   IFR   IFR Intensif   IFR Très Intensif
Visi : 
Plafond : 
>= 8 km
>= 3000ft
5 à 8 km
1000 à 3000 ft
1500m à 5 km
500 à 1000 ft
800 à 1500m
200 à 500 ft
< 800m
< 200 ft
Symboles :   Orages  Brouillard  Fortes neiges  Fortes précipitations  Vent > 20 kt
SIGMETs :   Divers  Orages  Givrage  Turbulence  Onde Orograph.  Cendres Volcan.







- Altitude de l'aérodrome : 274 ft
- Code IATA : PUY


LDPL - Pula

DERNIER METAR :
  • 241430Z 24005KT 180V280 CAVOK 24/09 Q1017 NOSIG

METARs EXPIRÉS :
  • 241400Z 24006KT 170V290 CAVOK 23/08 Q1017 NOSIG
  • 241330Z 25005KT 200V300 9999 FEW055 24/08 Q1017 NOSIG
  • 241300Z 23008KT 200V270 9999 FEW055 24/09 Q1018 NOSIG
  • 241230Z 21007KT 110V260 9999 FEW055 24/09 Q1018 TEMPO 27006KT
  • 241200Z 17006KT 110V230 9999 FEW055 24/09 Q1018 TEMPO 27006KT
  • 241130Z 19005KT 120V250 9999 FEW055 23/09 Q1018 TEMPO 27006KT

TAF TAF LDPL
Valide du 24 à 12h jusqu'au 25 à 12h UTC


241125Z 2412/2512 VRB02KT 9999 FEW050 TX24/2413Z TN17/2505Z
TEMPO 2413/2417 27008KT
BECMG 2503/2505 05008KT
PROB30
TEMPO 2505/2509 SHRA SCT030TCU
Pas de NOTAMs connus pour ce terrain.



MET'MAP, la Météo Aéronautique d'un coup d'oeil ! - Copyright ORBIFLY Décembre 2007 - Disclaimer

ORBIFLY MET'MAP TEAM :

Programmation & Développement : Alexandra Zaïnal
Conception & Développement : Baudouin d'Aumeries
Co-Programmation & Développement : Marc-Olivier Méhu
Soutien technique & logistique : Manuel Goepfert

Contact : metmap@orbifly.com




SOURCES & CREDITS :

   NOAA